Time;durP1;ratioP1;P1;durP2;ratioP2;P2;SDS_P1;SDS_P2;PMS_P1;PMS_P2;Temp;Humidity;BMP_temperature;BMP_pressure;BME280_temperature;BME280_humidity;BME280_pressure;Samples;Min_cycle;Max_cycle;Signal;HPM_P1;HPM_P2
2022/09/10 00:01:06;;;;;;;6.70;4.33;;;;;;;-148.82;100.00;60434.72;5001911;28;20410;-60
2022/09/10 00:03:34;;;;;;;5.80;5.20;;;;;;;-148.82;100.00;60434.72;4989314;28;20728;-60
2022/09/10 00:06:04;;;;;;;4.93;4.53;;;;;;;-148.82;100.00;60434.72;5002007;28;20207;-56
2022/09/10 00:08:34;;;;;;;5.50;5.00;;;;;;;-148.82;100.00;60434.72;5006555;28;20211;-60
2022/09/10 00:11:05;;;;;;;5.57;4.90;;;;;;;-148.82;100.00;60434.72;5002349;28;20655;-58
2022/09/10 00:13:34;;;;;;;7.30;5.40;;;;;;;-148.82;100.00;60434.72;4917442;28;20222;-57
2022/09/10 00:16:04;;;;;;;5.47;4.80;;;;;;;-148.82;100.00;60434.72;4985597;28;20307;-57
2022/09/10 00:18:39;;;;;;;5.47;4.97;;;;;;;-148.82;100.00;60434.72;4972011;28;20196;-58
2022/09/10 00:21:10;;;;;;;7.53;5.27;;;;;;;-148.82;100.00;60434.72;4979845;28;20232;-60
2022/09/10 00:23:42;;;;;;;5.50;5.17;;;;;;;-148.82;100.00;60434.72;5005183;28;20669;-54
2022/09/10 00:26:13;;;;;;;6.40;5.80;;;;;;;-148.82;100.00;60434.72;5007067;28;20208;-57
2022/09/10 00:28:42;;;;;;;11.60;8.20;;;;;;;-148.82;100.00;60434.72;4952440;28;20907;-58
2022/09/10 00:31:12;;;;;;;9.47;8.43;;;;;;;-148.82;100.00;60434.72;5000117;28;20211;-58
2022/09/10 00:33:40;;;;;;;12.27;9.30;;;;;;;-148.82;100.00;60434.72;4997907;28;20398;-57
2022/09/10 00:36:16;;;;;;;10.50;9.30;;;;;;;-148.82;100.00;60434.72;4982952;28;20227;-58
2022/09/10 00:38:46;;;;;;;10.93;8.33;;;;;;;-148.82;100.00;60434.72;5003490;28;20208;-57
2022/09/10 00:41:15;;;;;;;10.23;9.17;;;;;;;-148.82;100.00;60434.72;5004274;28;20235;-61
2022/09/10 00:43:49;;;;;;;10.10;8.20;;;;;;;-148.82;100.00;60434.72;5011101;28;20256;-60
2022/09/10 00:46:24;;;;;;;11.87;8.20;;;;;;;-148.82;100.00;60434.72;4975427;28;20211;-57
2022/09/10 00:48:53;;;;;;;20.27;8.83;;;;;;;-148.82;100.00;60434.72;4997254;28;20246;-55
2022/09/10 00:51:21;;;;;;;11.30;7.97;;;;;;;-148.82;100.00;60434.72;4985557;28;20631;-55
2022/09/10 00:53:50;;;;;;;9.13;8.23;;;;;;;-148.82;100.00;60434.72;5006740;28;20612;-56
2022/09/10 00:56:19;;;;;;;10.20;8.37;;;;;;;-148.82;100.00;60434.72;5001219;28;20202;-58
2022/09/10 00:58:48;;;;;;;10.27;8.67;;;;;;;-148.82;100.00;60434.72;4999313;28;20215;-57
2022/09/10 01:01:18;;;;;;;11.07;8.50;;;;;;;-148.82;100.00;60434.72;4968932;28;20568;-54
2022/09/10 01:03:46;;;;;;;14.60;9.83;;;;;;;-148.82;100.00;60434.72;5010227;28;20455;-56
2022/09/10 01:06:14;;;;;;;9.80;8.90;;;;;;;-148.82;100.00;60434.72;4987167;28;20521;-54
2022/09/10 01:08:42;;;;;;;14.13;8.27;;;;;;;-148.82;100.00;60434.72;5009189;28;20232;-59
2022/09/10 01:11:25;;;;;;;14.93;8.60;;;;;;;-148.82;100.00;60434.72;5006281;28;20673;-56
2022/09/10 01:14:09;;;;;;;10.47;8.80;;;;;;;-148.82;100.00;60434.72;5003506;28;20269;-54
2022/09/10 01:16:41;;;;;;;10.13;9.13;;;;;;;-148.82;100.00;60434.72;4963169;28;20239;-57
2022/09/10 01:19:21;;;;;;;8.17;7.57;;;;;;;-148.82;100.00;60434.72;5002260;28;20403;-58
2022/09/10 01:21:56;;;;;;;8.27;7.50;;;;;;;-148.82;100.00;60434.72;5004143;28;20224;-56
2022/09/10 01:24:47;;;;;;;8.17;7.37;;;;;;;-148.82;100.00;60434.72;4999997;28;20219;-55
2022/09/10 01:27:35;;;;;;;8.13;7.27;;;;;;;-148.82;100.00;60434.72;5006267;28;20300;-59
2022/09/10 01:30:07;;;;;;;7.77;7.07;;;;;;;-148.82;100.00;60434.72;4998957;28;20211;-55
2022/09/10 01:32:44;;;;;;;8.87;7.10;;;;;;;-148.82;100.00;60434.72;4958493;28;20230;-59
2022/09/10 01:35:17;;;;;;;7.93;6.67;;;;;;;-148.82;100.00;60434.72;5002479;28;20619;-57
2022/09/10 01:37:48;;;;;;;9.93;6.70;;;;;;;-148.82;100.00;60434.72;4987331;28;20275;-58
2022/09/10 01:40:17;;;;;;;6.97;6.33;;;;;;;-148.82;100.00;60434.72;5001122;28;20197;-60
2022/09/10 01:42:49;;;;;;;7.30;6.70;;;;;;;-148.82;100.00;60434.72;5011211;28;20233;-59
2022/09/10 01:45:17;;;;;;;8.53;6.60;;;;;;;-148.82;100.00;60434.72;5004849;28;20244;-58
2022/09/10 01:48:16;;;;;;;8.13;6.67;;;;;;;-148.82;100.00;60434.72;4957204;28;20208;-58
2022/09/10 01:50:51;;;;;;;7.67;6.20;;;;;;;-148.82;100.00;60434.72;5007957;28;20208;-57
2022/09/10 01:53:34;;;;;;;7.40;6.70;;;;;;;-148.82;100.00;60434.72;4981909;28;22680;-59
2022/09/10 01:56:05;;;;;;;8.47;6.20;;;;;;;-148.82;100.00;60434.72;5000017;28;20684;-58
2022/09/10 01:58:37;;;;;;;6.20;5.60;;;;;;;-148.82;100.00;60434.72;5009875;28;20654;-55
2022/09/10 02:01:11;;;;;;;6.33;5.33;;;;;;;-148.82;100.00;60434.72;5005309;28;20201;-58
2022/09/10 02:03:40;;;;;;;6.27;5.77;;;;;;;-148.82;100.00;60434.72;4956585;28;20220;-54
2022/09/10 02:06:12;;;;;;;8.50;6.33;;;;;;;-148.82;100.00;60434.72;5003784;28;20853;-59
2022/09/10 02:08:41;;;;;;;8.80;5.83;;;;;;;-148.82;100.00;60434.72;5003537;28;21170;-60
2022/09/10 02:11:13;;;;;;;6.73;5.47;;;;;;;-148.82;100.00;60434.72;4981266;28;20208;-57
2022/09/10 02:13:42;;;;;;;7.50;6.40;;;;;;;-148.82;100.00;60434.72;5003664;28;20231;-60
2022/09/10 02:16:13;;;;;;;9.63;6.13;;;;;;;-148.82;100.00;60434.72;5003726;28;20612;-59
2022/09/10 02:18:42;;;;;;;7.40;6.63;;;;;;;-148.82;100.00;60434.72;4958397;28;20719;-56
2022/09/10 02:21:12;;;;;;;7.73;6.43;;;;;;;-148.82;100.00;60434.72;4972290;28;20205;-57
2022/09/10 02:23:44;;;;;;;7.03;5.63;;;;;;;-148.82;100.00;60434.72;4974486;28;20250;-58
2022/09/10 02:26:13;;;;;;;6.53;5.97;;;;;;;-148.82;100.00;60434.72;5004179;28;20200;-56
2022/09/10 02:28:43;;;;;;;6.60;6.00;;;;;;;-148.82;100.00;60434.72;4989342;28;20567;-57
2022/09/10 02:31:11;;;;;;;9.33;6.60;;;;;;;-148.82;100.00;60434.72;5007224;28;20212;-57
2022/09/10 02:33:39;;;;;;;12.17;6.77;;;;;;;-148.82;100.00;60434.72;4984242;28;20204;-59
2022/09/10 02:36:08;;;;;;;7.17;6.57;;;;;;;-148.82;100.00;60434.72;4976979;28;20209;-58
2022/09/10 02:38:37;;;;;;;9.63;6.27;;;;;;;-148.82;100.00;60434.72;4992189;28;20584;-59
2022/09/10 02:41:05;;;;;;;7.13;6.50;;;;;;;-148.82;100.00;60434.72;5005956;28;20675;-58
2022/09/10 02:43:37;;;;;;;6.63;6.10;;;;;;;-148.82;100.00;60434.72;4988497;28;20300;-60
2022/09/10 02:46:06;;;;;;;7.27;6.57;;;;;;;-148.82;100.00;60434.72;5005340;28;20205;-58
2022/09/10 02:48:34;;;;;;;6.37;5.47;;;;;;;-148.82;100.00;60434.72;4980886;28;21023;-59
2022/09/10 02:51:03;;;;;;;6.50;5.93;;;;;;;-148.82;100.00;60434.72;4993182;28;20199;-57
2022/09/10 02:53:31;;;;;;;8.93;6.57;;;;;;;-148.82;100.00;60434.72;4973411;28;20462;-59
2022/09/10 02:55:59;;;;;;;9.47;6.93;;;;;;;-148.82;100.00;60434.72;5007938;28;20212;-56
2022/09/10 02:58:30;;;;;;;6.90;6.20;;;;;;;-148.82;100.00;60434.72;4984797;28;21540;-57
2022/09/10 03:01:07;;;;;;;6.57;5.67;;;;;;;-148.82;100.00;60434.72;5005683;28;20242;-58
2022/09/10 03:03:35;;;;;;;6.53;6.03;;;;;;;-148.82;100.00;60434.72;4982665;28;20426;-58
2022/09/10 03:06:04;;;;;;;7.10;5.57;;;;;;;-148.82;100.00;60434.72;5004119;28;20299;-55
2022/09/10 03:08:32;;;;;;;7.17;6.47;;;;;;;-148.82;100.00;60434.72;4957831;28;20382;-58
2022/09/10 03:11:00;;;;;;;6.73;6.07;;;;;;;-148.82;100.00;60434.72;5003171;28;20285;-56
2022/09/10 03:13:29;;;;;;;6.43;5.60;;;;;;;-148.82;100.00;60434.72;5006510;28;20588;-61
2022/09/10 03:15:57;;;;;;;6.30;5.70;;;;;;;-148.82;100.00;60434.72;4986894;28;20218;-59
2022/09/10 03:18:27;;;;;;;7.50;5.83;;;;;;;-148.82;100.00;60434.72;4982012;28;20989;-59
2022/09/10 03:20:55;;;;;;;7.33;5.90;;;;;;;-148.82;100.00;60434.72;4999546;28;20204;-58
2022/09/10 03:23:23;;;;;;;6.83;5.90;;;;;;;-148.82;100.00;60434.72;4957244;28;20251;-60
2022/09/10 03:25:51;;;;;;;6.73;5.90;;;;;;;-148.82;100.00;60434.72;5000975;28;20209;-58
2022/09/10 03:28:19;;;;;;;7.40;5.47;;;;;;;-148.82;100.00;60434.72;5001695;28;20744;-57
2022/09/10 03:30:47;;;;;;;6.67;6.07;;;;;;;-148.82;100.00;60434.72;4988090;28;20212;-56
2022/09/10 03:33:19;;;;;;;6.10;5.50;;;;;;;-148.82;100.00;60434.72;5003634;28;20227;-57
2022/09/10 03:35:51;;;;;;;6.10;5.70;;;;;;;-148.82;100.00;60434.72;4982839;28;20212;-58
2022/09/10 03:38:19;;;;;;;7.73;5.43;;;;;;;-148.82;100.00;60434.72;4969627;28;20207;-58
2022/09/10 03:40:48;;;;;;;9.13;5.70;;;;;;;-148.82;100.00;60434.72;4968734;28;20459;-60
2022/09/10 03:43:16;;;;;;;6.80;5.47;;;;;;;-148.82;100.00;60434.72;5002178;28;20354;-57
2022/09/10 03:45:44;;;;;;;5.67;5.17;;;;;;;-148.82;100.00;60434.72;4980923;28;20230;-58
2022/09/10 03:48:12;;;;;;;6.13;5.00;;;;;;;-148.82;100.00;60434.72;5000623;28;21240;-53
2022/09/10 03:50:41;;;;;;;6.20;5.70;;;;;;;-148.82;100.00;60434.72;4977655;28;20713;-55
2022/09/10 03:53:10;;;;;;;5.70;5.20;;;;;;;-148.82;100.00;60434.72;5002065;28;20224;-57
2022/09/10 03:55:38;;;;;;;6.03;5.40;;;;;;;-148.82;100.00;60434.72;4948512;28;20217;-60
2022/09/10 03:58:07;;;;;;;4.70;4.30;;;;;;;-148.82;100.00;60434.72;5005088;28;20558;-60
2022/09/10 04:00:35;;;;;;;7.30;4.93;;;;;;;-148.82;100.00;60434.72;4981984;28;20209;-57
2022/09/10 04:03:04;;;;;;;5.23;4.83;;;;;;;-148.82;100.00;60434.72;5001714;28;20555;-60
2022/09/10 04:05:32;;;;;;;5.03;4.63;;;;;;;-148.82;100.00;60434.72;4971096;28;20235;-58
2022/09/10 04:08:01;;;;;;;6.10;4.50;;;;;;;-148.82;100.00;60434.72;5007238;28;20581;-58
2022/09/10 04:10:31;;;;;;;6.30;4.63;;;;;;;-148.82;100.00;60434.72;4950815;28;20231;-55
2022/09/10 04:13:00;;;;;;;4.83;4.40;;;;;;;-148.82;100.00;60434.72;5002384;28;20225;-59
2022/09/10 04:15:28;;;;;;;5.27;4.80;;;;;;;-148.82;100.00;60434.72;4998984;28;20986;-57
2022/09/10 04:17:57;;;;;;;6.43;5.93;;;;;;;-148.82;100.00;60434.72;4999661;28;20228;-54
2022/09/10 04:20:25;;;;;;;4.77;4.37;;;;;;;-148.82;100.00;60434.72;4995236;28;20588;-58
2022/09/10 04:22:55;;;;;;;6.70;4.70;;;;;;;-148.82;100.00;60434.72;4987618;28;21050;-55
2022/09/10 04:25:24;;;;;;;5.50;5.03;;;;;;;-148.82;100.00;60434.72;4962908;28;20236;-58
2022/09/10 04:27:53;;;;;;;5.17;4.57;;;;;;;-148.82;100.00;60434.72;4979307;28;20884;-54
2022/09/10 04:30:22;;;;;;;5.37;4.97;;;;;;;-148.82;100.00;60434.72;4914464;28;20332;-57
2022/09/10 04:32:51;;;;;;;5.30;4.83;;;;;;;-148.82;100.00;60434.72;4989251;28;20242;-54
2022/09/10 04:35:20;;;;;;;5.20;4.73;;;;;;;-148.82;100.00;60434.72;4983537;28;20495;-58
2022/09/10 04:37:48;;;;;;;5.47;4.67;;;;;;;-148.82;100.00;60434.72;4983338;28;20393;-58
2022/09/10 04:40:16;;;;;;;4.87;4.53;;;;;;;-148.82;100.00;60434.72;5004063;28;20337;-54
2022/09/10 04:42:44;;;;;;;5.43;5.03;;;;;;;-148.82;100.00;60434.72;4989991;28;20236;-59
2022/09/10 04:45:14;;;;;;;5.53;5.03;;;;;;;-148.82;100.00;60434.72;4959926;28;20228;-58
2022/09/10 04:47:42;;;;;;;5.43;4.43;;;;;;;-148.82;100.00;60434.72;5004850;28;20201;-58
2022/09/10 04:50:10;;;;;;;7.37;4.53;;;;;;;-148.82;100.00;60434.72;5008155;28;20208;-55
2022/09/10 04:52:38;;;;;;;7.60;5.10;;;;;;;-148.82;100.00;60434.72;4970966;28;20232;-59
2022/09/10 04:55:08;;;;;;;5.00;4.43;;;;;;;-148.82;100.00;60434.72;4998780;28;20201;-58
2022/09/10 04:57:36;;;;;;;4.83;4.43;;;;;;;-148.82;100.00;60434.72;4984215;28;20987;-57
2022/09/10 05:00:05;;;;;;;6.83;5.30;;;;;;;-148.82;100.00;60434.72;4956355;28;20225;-58
2022/09/10 05:02:36;;;;;;;6.50;5.03;;;;;;;-148.82;100.00;60434.72;4985389;28;20284;-58
2022/09/10 05:05:05;;;;;;;5.37;4.37;;;;;;;-148.82;100.00;60434.72;5011330;28;20224;-52
2022/09/10 05:07:37;;;;;;;4.23;3.93;;;;;;;-148.82;100.00;60434.72;4966927;28;20962;-56
2022/09/10 05:10:09;;;;;;;5.00;4.43;;;;;;;-148.82;100.00;60434.72;5006216;28;20587;-56
2022/09/10 05:12:39;;;;;;;5.88;5.38;;;;;;;-148.82;100.00;60434.72;5001269;28;20909;-55
2022/09/10 05:15:09;;;;;;;4.87;4.40;;;;;;;-148.82;100.00;60434.72;5000210;28;20201;-54
2022/09/10 05:17:39;;;;;;;5.13;4.73;;;;;;;-148.82;100.00;60434.72;4969586;28;20358;-56
2022/09/10 05:20:09;;;;;;;5.73;4.10;;;;;;;-148.82;100.00;60434.72;4987895;28;20241;-60
2022/09/10 05:22:37;;;;;;;5.10;4.70;;;;;;;-148.82;100.00;60434.72;4988094;28;20559;-57
2022/09/10 05:25:08;;;;;;;4.43;4.13;;;;;;;-148.82;100.00;60434.72;4971739;28;20221;-56
2022/09/10 05:27:36;;;;;;;6.77;4.67;;;;;;;-148.82;100.00;60434.72;4992984;28;21087;-52
2022/09/10 05:30:06;;;;;;;5.70;4.70;;;;;;;-148.82;100.00;60434.72;5010524;28;20211;-59
2022/09/10 05:35:47;;;;;;;5.53;5.00;;;;;;;;;;5036560;27;20590;-55
2022/09/10 05:38:15;;;;;;;4.97;4.57;;;;;;;;;;5003330;28;20208;-52
2022/09/10 05:40:43;;;;;;;5.20;4.43;;;;;;;;;;4985373;28;20429;-56
2022/09/10 05:43:11;;;;;;;8.40;4.53;;;;;;;;;;5008947;28;20665;-52
2022/09/10 05:45:39;;;;;;;6.37;5.23;;;;;;;;;;4975560;28;20609;-57
2022/09/10 05:48:07;;;;;;;7.93;4.23;;;;;;;;;;5027622;28;20215;-59
2022/09/10 05:50:37;;;;;;;6.35;5.60;;;;;;;;;;5024138;28;20483;-54
2022/09/10 05:53:06;;;;;;;6.03;5.00;;;;;;;;;;5032326;28;20242;-56
2022/09/10 05:55:34;;;;;;;7.37;4.50;;;;;;;;;;5008064;28;20523;-54
2022/09/10 05:58:02;;;;;;;5.73;4.33;;;;;;;;;;5040324;28;20764;-58
2022/09/10 06:00:30;;;;;;;4.27;3.90;;;;;;;;;;5027021;28;20225;-55
2022/09/10 06:02:58;;;;;;;5.60;4.50;;;;;;;;;;5000218;28;20226;-57
2022/09/10 06:05:26;;;;;;;6.00;4.57;;;;;;;;;;5036003;28;20210;-56
2022/09/10 06:07:55;;;;;;;4.60;4.17;;;;;;;;;;5044524;28;20203;-57
2022/09/10 06:10:24;;;;;;;5.73;4.83;;;;;;;;;;5009828;28;20200;-56
2022/09/10 06:12:52;;;;;;;5.40;3.93;;;;;;;;;;5045445;28;20658;-55
2022/09/10 06:15:21;;;;;;;4.87;4.40;;;;;;;;;;5040133;28;20239;-56
2022/09/10 06:17:49;;;;;;;5.87;4.37;;;;;;;;;;4995634;28;20213;-55
2022/09/10 06:20:16;;;;;;;4.67;4.13;;;;;;;;;;5041542;28;20203;-56
2022/09/10 06:22:44;;;;;;;4.70;4.40;;;;;;;;;;5019494;28;20226;-54
2022/09/10 06:25:12;;;;;;;4.23;3.83;;;;;;;;;;5027470;28;20734;-53
2022/09/10 06:27:41;;;;;;;6.60;5.37;;;;;;;;;;5011147;28;20207;-52
2022/09/10 06:30:10;;;;;;;10.37;4.50;;;;;;;;;;5039276;28;20582;-58
2022/09/10 06:32:38;;;;;;;3.83;3.43;;;;;;;;;;5001125;28;20245;-53
2022/09/10 06:35:06;;;;;;;5.00;4.30;;;;;;;;;;5023451;28;20236;-58
2022/09/10 06:37:34;;;;;;;4.20;4.00;;;;;;;;;;5017652;28;20820;-55
2022/09/10 06:40:02;;;;;;;5.80;3.97;;;;;;;;;;5042756;28;20491;-55
2022/09/10 06:42:31;;;;;;;4.80;3.83;;;;;;;;;;5039176;28;20241;-54
2022/09/10 06:45:00;;;;;;;7.50;4.37;;;;;;;;;;5040552;28;20226;-55
2022/09/10 06:47:28;;;;;;;4.33;3.97;;;;;;;;;;5024086;28;20953;-58
2022/09/10 06:50:16;;;;;;;4.33;4.13;;;;;;;;;;4984481;28;20208;-56
2022/09/10 06:52:45;;;;;;;4.40;4.07;;;;;;;;;;5031204;28;20277;-58
2022/09/10 06:55:13;;;;;;;4.73;4.30;;;;;;;;;;5025395;28;20597;-57
2022/09/10 06:57:40;;;;;;;4.30;3.77;;;;;;;;;;5026383;28;20324;-58
2022/09/10 07:00:11;;;;;;;4.67;3.67;;;;;;;;;;5028092;28;20231;-57
2022/09/10 07:02:39;;;;;;;4.60;4.20;;;;;;;;;;5029137;28;20271;-57
2022/09/10 07:05:08;;;;;;;5.83;3.70;;;;;;;;;;5019257;28;20286;-58
2022/09/10 07:07:35;;;;;;;6.07;4.33;;;;;;;;;;4988277;28;20211;-56
2022/09/10 07:10:04;;;;;;;3.47;3.27;;;;;;;;;;5033293;28;20318;-56
2022/09/10 07:12:31;;;;;;;4.80;3.30;;;;;;;;;;5029103;28;20318;-57
2022/09/10 07:14:59;;;;;;;4.47;3.97;;;;;;;;;;5026066;28;20594;-57
2022/09/10 07:17:29;;;;;;;7.50;4.13;;;;;;;;;;5026073;28;20678;-56
2022/09/10 07:19:58;;;;;;;3.73;3.50;;;;;;;;;;5026940;28;20435;-57
2022/09/10 07:22:26;;;;;;;3.57;3.20;;;;;;;;;;4986246;28;20350;-57
2022/09/10 07:24:54;;;;;;;4.23;3.83;;;;;;;;;;5026952;28;20447;-59
2022/09/10 07:27:22;;;;;;;4.57;3.83;;;;;;;;;;5020056;28;20441;-52
2022/09/10 07:32:05;;;;;;;5.40;3.87;;;;;;;14.26;100.00;96979.09;5033716;27;21135;-54
2022/09/10 07:34:36;;;;;;;6.23;5.73;;;;;;;14.05;100.00;96978.38;5026800;28;20200;-58
2022/09/10 07:37:04;;;;;;;3.77;3.57;;;;;;;13.92;100.00;96973.91;4979604;28;20798;-57
2022/09/10 07:39:32;;;;;;;4.37;3.97;;;;;;;14.02;100.00;96979.63;5026151;28;20208;-55
2022/09/10 07:42:01;;;;;;;3.27;2.97;;;;;;;14.13;100.00;96977.31;5020074;28;20769;-56
2022/09/10 07:44:29;;;;;;;4.33;3.97;;;;;;;14.25;100.00;96980.13;5023724;28;20203;-54
2022/09/10 07:46:58;;;;;;;5.80;3.90;;;;;;;14.50;100.00;96985.53;5025911;28;20230;-57
2022/09/10 07:49:27;;;;;;;4.50;3.57;;;;;;;14.76;100.00;96984.56;5019043;28;20208;-54
2022/09/10 07:51:59;;;;;;;3.60;3.40;;;;;;;14.70;100.00;96981.91;5020275;28;20655;-51
2022/09/10 07:54:27;;;;;;;3.67;3.30;;;;;;;14.88;100.00;96989.22;4949476;28;20859;-55
2022/09/10 07:57:10;;;;;;;3.27;2.97;;;;;;;14.95;100.00;96995.31;4994927;28;20323;-57
2022/09/10 07:59:39;;;;;;;2.80;2.60;;;;;;;14.88;100.00;96991.88;5019490;28;20215;-53
2022/09/10 08:02:08;;;;;;;2.20;2.10;;;;;;;14.81;100.00;96986.63;5025110;28;20239;-57
2022/09/10 08:04:37;;;;;;;2.45;2.35;;;;;;;14.90;100.00;96985.31;5020389;28;20457;-56
2022/09/10 08:07:05;;;;;;;3.03;2.23;;;;;;;14.96;100.00;96990.81;5023648;28;20215;-54
2022/09/10 08:09:33;;;;;;;2.27;2.17;;;;;;;14.97;100.00;96995.09;4969236;28;20242;-52
2022/09/10 08:12:01;;;;;;;2.37;2.23;;;;;;;14.93;100.00;96986.69;5018667;28;20246;-56
2022/09/10 08:14:30;;;;;;;2.27;2.17;;;;;;;15.00;100.00;96990.16;4999608;28;20770;-56
2022/09/10 08:16:59;;;;;;;2.70;2.53;;;;;;;15.08;100.00;96991.72;5018839;28;20223;-57
2022/09/10 08:19:28;;;;;;;3.23;2.07;;;;;;;15.26;100.00;96992.81;5020408;28;20232;-56
2022/09/10 08:21:58;;;;;;;3.67;1.90;;;;;;;15.48;100.00;96987.91;5015858;28;20229;-55
2022/09/10 08:24:26;;;;;;;2.10;2.00;;;;;;;15.53;100.00;96990.72;4968791;28;20240;-58
2022/09/10 08:26:54;;;;;;;2.43;1.80;;;;;;;15.62;100.00;96992.06;5016490;28;20616;-56
2022/09/10 08:29:22;;;;;;;2.47;1.73;;;;;;;15.45;100.00;96991.00;5007780;28;20208;-60
2022/09/10 08:31:50;;;;;;;3.17;2.40;;;;;;;15.21;100.00;97000.69;5025222;28;20247;-57
2022/09/10 08:34:18;;;;;;;1.73;1.63;;;;;;;15.03;100.00;97002.25;5025786;28;20239;-56
2022/09/10 08:36:47;;;;;;;2.83;2.63;;;;;;;14.59;100.00;97000.25;5023585;28;20606;-56
2022/09/10 08:39:16;;;;;;;1.70;1.60;;;;;;;14.79;100.00;96993.19;4978520;28;20782;-56
2022/09/10 08:41:48;;;;;;;2.57;1.80;;;;;;;14.72;100.00;96999.38;5020185;28;20704;-58
2022/09/10 08:44:26;;;;;;;3.63;2.33;;;;;;;14.92;100.00;97006.41;4954130;28;20227;-55
2022/09/10 08:46:58;;;;;;;2.17;1.97;;;;;;;15.25;100.00;97007.22;5014123;28;20204;-53
2022/09/10 08:49:33;;;;;;;3.07;1.63;;;;;;;15.48;100.00;97001.25;5012180;28;20746;-55
2022/09/10 08:52:04;;;;;;;1.47;1.37;;;;;;;15.55;100.00;97007.34;5016896;28;20234;-57
2022/09/10 08:54:36;;;;;;;2.10;1.37;;;;;;;15.54;100.00;97005.72;4990862;28;21465;-58
2022/09/10 08:57:06;;;;;;;3.03;1.63;;;;;;;15.80;100.00;97002.97;5002350;28;20212;-57
2022/09/10 08:59:39;;;;;;;1.23;1.20;;;;;;;15.86;100.00;97002.91;4963121;28;20209;-59
2022/09/10 09:02:15;;;;;;;2.30;1.70;;;;;;;15.78;100.00;97003.22;5009699;28;20212;-56
2022/09/10 09:05:07;;;;;;;1.17;1.17;;;;;;;15.67;100.00;97006.59;5011090;28;20231;-56
2022/09/10 09:07:38;;;;;;;2.77;1.27;;;;;;;15.48;100.00;97014.59;5011498;28;20843;-55
2022/09/10 09:10:17;;;;;;;1.60;1.50;;;;;;;15.09;100.00;97005.91;5013230;28;20211;-56
2022/09/10 09:12:53;;;;;;;2.23;2.00;;;;;;;14.86;100.00;97017.94;4961889;28;20306;-54
2022/09/10 09:15:25;;;;;;;1.60;1.50;;;;;;;14.76;100.00;97026.41;4982600;28;20398;-55
2022/09/10 09:18:07;;;;;;;1.43;1.13;;;;;;;14.68;100.00;97016.81;5004306;28;20223;-57
2022/09/10 09:20:41;;;;;;;1.97;1.73;;;;;;;14.62;100.00;97025.66;5006825;28;20201;-55
2022/09/10 09:23:19;;;;;;;1.87;1.37;;;;;;;14.73;100.00;97022.34;5009792;28;20227;-53
2022/09/10 09:25:50;;;;;;;1.40;1.30;;;;;;;14.80;100.00;97024.16;5011915;28;20698;-54
2022/09/10 09:28:25;;;;;;;1.27;1.20;;;;;;;15.15;100.00;97021.88;4968606;28;20211;-55
2022/09/10 09:30:54;;;;;;;2.67;1.53;;;;;;;15.40;100.00;97018.34;5009982;28;20690;-56
2022/09/10 09:33:24;;;;;;;2.33;1.30;;;;;;;15.39;100.00;97026.59;4954377;28;20804;-59
2022/09/10 09:35:56;;;;;;;2.20;2.00;;;;;;;15.45;100.00;97020.38;5009806;28;20209;-58
2022/09/10 09:38:26;;;;;;;2.20;2.00;;;;;;;15.55;100.00;97025.22;5009779;28;20470;-59
2022/09/10 09:40:57;;;;;;;1.83;1.73;;;;;;;16.00;100.00;97014.31;4991629;28;20212;-58
2022/09/10 09:43:37;;;;;;;1.67;1.57;;;;;;;16.29;100.00;97011.09;5010610;28;20216;-57
2022/09/10 09:46:14;;;;;;;2.03;1.93;;;;;;;16.23;100.00;97003.97;4965144;28;20216;-58
2022/09/10 09:48:43;;;;;;;3.80;2.10;;;;;;;16.15;100.00;97005.09;4991678;28;20212;-57
2022/09/10 09:51:14;;;;;;;3.27;2.00;;;;;;;15.68;100.00;97009.06;5009615;28;20228;-56
2022/09/10 09:53:42;;;;;;;2.43;1.60;;;;;;;15.31;100.00;97017.00;5012820;28;20291;-58
2022/09/10 09:56:22;;;;;;;2.30;1.97;;;;;;;14.96;100.00;97006.81;4988280;28;20283;-54
2022/09/10 09:58:51;;;;;;;2.30;2.20;;;;;;;14.95;100.00;97013.19;5007070;28;20200;-57
2022/09/10 10:01:22;;;;;;;2.30;2.20;;;;;;;15.00;100.00;97003.50;4976216;28;20208;-53
2022/09/10 10:03:57;;;;;;;2.37;2.27;;;;;;;15.30;100.00;97010.03;4988148;28;20236;-55
2022/09/10 10:06:26;;;;;;;2.20;2.10;;;;;;;15.57;100.00;96997.25;5010421;28;20384;-52
2022/09/10 10:09:00;;;;;;;2.83;2.53;;;;;;;15.84;100.00;96997.00;5012709;28;20201;-57
2022/09/10 10:11:49;;;;;;;1.80;1.70;;;;;;;16.17;100.00;96990.47;4989017;28;20240;-58
2022/09/10 10:14:35;;;;;;;1.50;1.43;;;;;;;16.05;100.00;96989.56;4957732;28;20901;-56
2022/09/10 10:17:21;;;;;;;1.60;1.60;;;;;;;16.15;100.00;96983.72;4994158;28;20460;-58
2022/09/10 10:19:58;;;;;;;1.80;1.70;;;;;;;16.19;100.00;96975.03;4991083;28;20207;-57
2022/09/10 10:22:28;;;;;;;3.67;1.40;;;;;;;16.01;100.00;96972.34;4989342;28;20349;-57
2022/09/10 10:24:57;;;;;;;2.50;1.40;;;;;;;16.42;100.00;96980.69;5005105;28;20212;-58
2022/09/10 10:27:31;;;;;;;2.77;1.83;;;;;;;16.90;100.00;96974.44;4994482;28;20238;-57
2022/09/10 10:30:02;;;;;;;1.50;1.20;;;;;;;17.21;100.00;96982.41;4979898;28;20774;-55
2022/09/10 10:32:41;;;;;;;1.60;1.50;;;;;;;17.69;100.00;96969.03;5002505;28;20573;-58
2022/09/10 10:35:34;;;;;;;1.13;1.13;;;;;;;17.77;100.00;96956.06;4984461;28;20765;-54
2022/09/10 10:38:24;;;;;;;1.93;1.80;;;;;;;17.98;100.00;96966.41;4980242;28;20204;-57
2022/09/10 10:41:04;;;;;;;1.55;0.95;;;;;;;17.94;100.00;96953.47;4989546;28;20465;-50
2022/09/10 10:43:42;;;;;;;1.80;1.45;;;;;;;17.96;100.00;96955.09;5009099;28;20464;-57
2022/09/10 10:46:16;;;;;;;1.20;1.10;;;;;;;18.39;100.00;96953.00;4956204;28;21880;-51
2022/09/10 10:48:58;;;;;;;1.43;1.40;;;;;;;18.39;100.00;96950.34;5008131;28;20612;-55
2022/09/10 10:51:36;;;;;;;0.90;0.90;;;;;;;18.55;100.00;96951.44;4941606;28;20512;-59
2022/09/10 10:54:18;;;;;;;0.87;0.87;;;;;;;18.04;100.00;96944.06;5006475;28;20212;-58
2022/09/10 10:56:55;;;;;;;1.73;0.87;;;;;;;18.14;100.00;96930.84;4990663;28;20215;-56
2022/09/10 10:59:33;;;;;;;0.90;0.90;;;;;;;18.34;100.00;96932.28;5007636;28;20207;-57
2022/09/10 11:02:09;;;;;;;1.00;1.00;;;;;;;19.36;100.00;96935.03;5012641;28;20457;-57
2022/09/10 11:04:42;;;;;;;1.20;1.13;;;;;;;19.66;100.00;96927.63;4954659;28;21871;-59
2022/09/10 11:07:14;;;;;;;1.37;0.90;;;;;;;19.61;100.00;96923.03;4979864;28;21172;-54
2022/09/10 11:09:46;;;;;;;0.97;0.87;;;;;;;19.28;100.00;96927.41;5008625;28;20251;-57
2022/09/10 11:12:18;;;;;;;2.07;1.30;;;;;;;19.43;100.00;96926.81;4985742;28;20682;-55
2022/09/10 11:14:51;;;;;;;2.17;1.13;;;;;;;19.21;100.00;96930.25;5006399;28;20200;-56
2022/09/10 11:17:22;;;;;;;2.60;1.23;;;;;;;19.49;100.00;96920.44;5005644;28;20238;-56
2022/09/10 11:19:58;;;;;;;1.30;0.80;;;;;;;19.15;100.00;96917.00;5008797;28;20204;-57
2022/09/10 11:22:49;;;;;;;1.33;1.20;;;;;;;18.51;100.00;96921.56;4995966;28;20653;-56
2022/09/10 11:25:21;;;;;;;1.13;1.03;;;;;;;18.53;100.00;96911.41;5006609;28;20209;-56
2022/09/10 11:27:52;;;;;;;1.40;1.30;;;;;;;18.30;100.00;96909.66;4986281;28;20208;-59
2022/09/10 11:30:21;;;;;;;0.70;0.70;;;;;;;17.97;100.00;96909.31;5007715;28;20236;-56
2022/09/10 11:32:54;;;;;;;0.97;0.97;;;;;;;17.88;100.00;96900.81;5012418;28;20227;-56
2022/09/10 11:35:25;;;;;;;1.53;1.30;;;;;;;18.41;100.00;96903.44;5007331;28;20214;-55
2022/09/10 11:38:07;;;;;;;1.43;1.00;;;;;;;18.13;100.00;96920.34;4958960;28;20374;-69
2022/09/10 11:40:39;;;;;;;1.53;1.20;;;;;;;17.33;100.00;96919.00;5008637;28;20499;-70
2022/09/10 11:43:12;;;;;;;0.80;0.80;;;;;;;17.62;100.00;96919.09;4986656;28;20683;-69
2022/09/10 11:45:46;;;;;;;1.73;1.20;;;;;;;17.23;100.00;96913.38;5010344;28;20558;-69
2022/09/10 11:48:19;;;;;;;1.63;1.20;;;;;;;16.60;100.00;96912.97;5008660;28;20781;-68
2022/09/10 11:50:51;;;;;;;1.30;1.20;;;;;;;16.79;100.00;96927.09;5010685;28;20208;-70
2022/09/10 11:53:22;;;;;;;1.53;0.93;;;;;;;17.20;100.00;96916.53;4954776;28;20236;-69
2022/09/10 11:56:08;;;;;;;2.43;1.17;;;;;;;17.45;100.00;96915.47;5007966;28;20256;-69
2022/09/10 11:58:45;;;;;;;3.47;1.40;;;;;;;17.47;100.00;96906.19;4984510;28;20203;-70
2022/09/10 12:01:23;;;;;;;3.23;1.23;;;;;;;17.19;100.00;96897.00;4982055;28;20615;-69
2022/09/10 12:04:06;;;;;;;1.77;1.67;;;;;;;16.94;100.00;96910.59;4991175;28;20290;-68
2022/09/10 12:06:49;;;;;;;2.83;1.27;;;;;;;17.02;100.00;96918.28;5007254;28;20212;-68